createdAt,value
2023-02-07T00:00:20.300Z,6.70
2023-02-07T00:01:21.902Z,6.70
2023-02-07T00:02:23.495Z,6.70
2023-02-07T00:03:25.054Z,6.71
2023-02-07T00:04:26.602Z,6.72
2023-02-07T00:05:28.213Z,6.74
2023-02-07T00:06:30.884Z,6.73
2023-02-07T00:07:32.384Z,6.75
2023-02-07T00:08:33.877Z,6.72
2023-02-07T00:09:37.429Z,6.71
2023-02-07T00:10:38.959Z,6.71
2023-02-07T00:11:40.939Z,6.72
2023-02-07T00:12:42.505Z,6.73
2023-02-07T00:13:44.336Z,6.71
2023-02-07T00:14:45.892Z,6.65
2023-02-07T00:15:50.326Z,6.63
2023-02-07T00:16:51.943Z,6.60
2023-02-07T00:17:53.474Z,6.64
2023-02-07T00:18:55.187Z,6.59
2023-02-07T00:19:56.690Z,6.61
2023-02-07T00:21:01.595Z,6.62
2023-02-07T00:22:03.665Z,6.61
2023-02-07T00:23:05.200Z,6.59
2023-02-07T00:24:07.495Z,6.60
2023-02-07T00:25:09.058Z,6.61
2023-02-07T00:26:10.733Z,6.60
2023-02-07T00:27:12.638Z,6.60
2023-02-07T00:28:14.211Z,6.57
2023-02-07T00:29:15.728Z,6.57
2023-02-07T00:30:17.369Z,6.57
2023-02-07T00:31:20.237Z,6.55
2023-02-07T00:32:21.837Z,6.56
2023-02-07T00:33:23.374Z,6.56
2023-02-07T00:34:25.105Z,6.56
2023-02-07T00:35:26.577Z,6.56
2023-02-07T00:36:28.397Z,6.58
2023-02-07T00:37:30.619Z,6.56
2023-02-07T00:38:32.104Z,6.57
2023-02-07T00:39:33.758Z,6.56
2023-02-07T00:40:35.270Z,6.57
2023-02-07T00:41:37.325Z,6.57
2023-02-07T00:42:38.842Z,6.54
2023-02-07T00:43:40.576Z,6.54
2023-02-07T00:44:42.056Z,6.51
2023-02-07T00:45:43.563Z,6.51
2023-02-07T00:46:45.101Z,6.48
2023-02-07T00:47:46.614Z,6.45
2023-02-07T00:48:48.184Z,6.37
2023-02-07T00:49:49.653Z,6.32
2023-02-07T00:50:51.179Z,6.29
2023-02-07T00:51:52.762Z,6.29
2023-02-07T00:52:54.888Z,6.28
2023-02-07T00:53:56.441Z,6.26
2023-02-07T00:54:58.919Z,6.24
2023-02-07T00:56:00.386Z,6.28
2023-02-07T00:57:02.291Z,6.31
2023-02-07T00:58:03.831Z,6.35
2023-02-07T00:59:05.400Z,6.38
2023-02-07T01:00:07.378Z,6.39
2023-02-07T01:01:09.150Z,6.36
2023-02-07T01:02:10.677Z,6.39
2023-02-07T01:03:12.209Z,6.42
2023-02-07T01:04:13.771Z,6.45
2023-02-07T01:05:15.294Z,6.48
2023-02-07T01:06:16.854Z,6.52
2023-02-07T01:07:18.373Z,6.52
2023-02-07T01:08:19.920Z,6.52
2023-02-07T01:09:21.557Z,6.54
2023-02-07T01:10:24.736Z,6.53
2023-02-07T01:11:26.354Z,6.52
2023-02-07T01:12:27.849Z,6.55
2023-02-07T01:13:29.372Z,6.56
2023-02-07T01:14:30.889Z,6.57
2023-02-07T01:15:35.994Z,6.58
2023-02-07T01:16:37.690Z,6.59
2023-02-07T01:17:39.298Z,6.61
2023-02-07T01:18:40.784Z,6.62
2023-02-07T01:19:42.270Z,6.65
2023-02-07T01:20:44.012Z,6.64
2023-02-07T01:21:45.712Z,6.62
2023-02-07T01:22:47.217Z,6.62
2023-02-07T01:23:48.804Z,6.64
2023-02-07T01:24:52.717Z,6.63
2023-02-07T01:25:54.656Z,6.61
2023-02-07T01:26:57.677Z,6.61
2023-02-07T01:27:59.273Z,6.64
2023-02-07T01:29:02.464Z,6.66
2023-02-07T01:30:04.331Z,6.65
2023-02-07T01:31:09.334Z,6.67
2023-02-07T01:32:10.879Z,6.65
2023-02-07T01:33:12.459Z,6.63
2023-02-07T01:34:14.203Z,6.42
2023-02-07T01:35:15.729Z,6.54
2023-02-07T01:36:17.208Z,6.55
2023-02-07T01:37:18.701Z,6.53
2023-02-07T01:38:20.200Z,6.49
2023-02-07T01:39:21.789Z,6.49
2023-02-07T01:40:23.290Z,6.52
2023-02-07T01:41:25.517Z,6.52
2023-02-07T01:42:27.372Z,6.56
2023-02-07T01:43:29.026Z,6.57
2023-02-07T01:44:31.182Z,6.59
2023-02-07T01:45:37.398Z,6.61
2023-02-07T01:46:40.255Z,6.63
2023-02-07T01:47:41.772Z,6.65
2023-02-07T01:48:43.338Z,6.62
2023-02-07T01:49:44.893Z,6.63
2023-02-07T01:50:47.313Z,6.62
2023-02-07T01:51:49.908Z,6.60
2023-02-07T01:52:51.514Z,6.57
2023-02-07T01:53:53.759Z,6.58
2023-02-07T01:54:58.038Z,6.59
2023-02-07T01:56:01.218Z,6.62
2023-02-07T01:57:06.810Z,6.65
2023-02-07T01:58:08.349Z,6.67
2023-02-07T01:59:10.453Z,6.63
2023-02-07T02:00:15.397Z,6.65
2023-02-07T02:01:24.149Z,6.61
2023-02-07T02:02:27.178Z,6.61
2023-02-07T02:03:28.670Z,6.64
2023-02-07T02:04:30.220Z,6.63
2023-02-07T02:05:31.721Z,6.64
2023-02-07T02:06:33.371Z,6.63
2023-02-07T02:07:35.000Z,6.62
2023-02-07T02:08:36.564Z,6.62
2023-02-07T02:09:38.103Z,6.62
2023-02-07T02:10:45.354Z,6.63
2023-02-07T02:12:04.932Z,6.64
2023-02-07T02:13:18.742Z,6.64
2023-02-07T02:14:38.919Z,6.62
2023-02-07T02:15:46.838Z,6.60
2023-02-07T02:17:05.777Z,6.60
2023-02-07T02:18:13.673Z,6.58
2023-02-07T02:19:26.925Z,6.56
2023-02-07T02:20:31.236Z,6.56
2023-02-07T02:21:35.587Z,6.51
2023-02-07T02:22:56.017Z,6.52
2023-02-07T02:24:23.928Z,6.39
2023-02-07T02:25:28.145Z,6.32
2023-02-07T02:26:29.594Z,6.33
2023-02-07T02:27:50.027Z,6.35
2023-02-07T02:28:51.557Z,6.36
2023-02-07T02:29:56.128Z,6.37
2023-02-07T02:31:09.965Z,6.36
2023-02-07T02:32:17.745Z,6.35
2023-02-07T02:33:20.984Z,6.33
2023-02-07T02:34:22.494Z,6.33
2023-02-07T02:35:26.688Z,6.30
2023-02-07T02:36:40.449Z,6.31
2023-02-07T02:37:53.070Z,6.31
2023-02-07T02:39:00.411Z,6.30
2023-02-07T02:40:02.011Z,6.24
2023-02-07T02:41:05.403Z,6.26
2023-02-07T02:42:09.693Z,6.23
2023-02-07T02:43:32.748Z,6.24
2023-02-07T02:44:45.693Z,6.20
2023-02-07T02:45:51.960Z,6.19
2023-02-07T02:46:53.624Z,6.19
2023-02-07T02:47:55.154Z,6.19
2023-02-07T02:48:56.672Z,6.16
2023-02-07T02:49:58.466Z,6.18
2023-02-07T02:51:00.045Z,6.19
2023-02-07T02:52:01.594Z,6.16
2023-02-07T02:53:03.257Z,6.15
2023-02-07T02:54:25.103Z,6.15
2023-02-07T02:55:45.582Z,6.12
2023-02-07T02:57:06.252Z,6.10
2023-02-07T02:58:16.826Z,6.07
2023-02-07T02:59:18.327Z,6.04
2023-02-07T03:00:28.785Z,6.04
2023-02-07T03:01:43.894Z,5.99
2023-02-07T03:02:51.054Z,5.93
2023-02-07T03:03:55.581Z,5.92
2023-02-07T03:05:02.826Z,5.87
2023-02-07T03:06:15.348Z,5.85
2023-02-07T03:07:19.802Z,5.72
2023-02-07T03:08:26.870Z,5.86
2023-02-07T03:09:34.627Z,5.84
2023-02-07T03:10:36.136Z,5.87
2023-02-07T03:11:41.921Z,5.86
2023-02-07T03:12:45.950Z,5.86
2023-02-07T03:13:53.191Z,5.83
2023-02-07T03:15:03.690Z,5.83
2023-02-07T03:16:13.674Z,5.82
2023-02-07T03:17:21.464Z,5.80
2023-02-07T03:18:27.186Z,5.81
2023-02-07T03:19:30.405Z,5.80
2023-02-07T03:20:34.635Z,5.79
2023-02-07T03:21:40.874Z,5.80
2023-02-07T03:22:42.413Z,5.81
2023-02-07T03:23:44.094Z,5.79
2023-02-07T03:24:46.712Z,5.75
2023-02-07T03:25:48.977Z,5.72
2023-02-07T03:26:54.159Z,5.71
2023-02-07T03:27:55.810Z,5.64
2023-02-07T03:28:57.301Z,5.65
2023-02-07T03:29:59.406Z,5.65
2023-02-07T03:31:02.250Z,5.66
2023-02-07T03:32:04.562Z,5.63
2023-02-07T03:33:11.813Z,5.63
2023-02-07T03:34:15.530Z,5.64
2023-02-07T03:35:17.153Z,5.62
2023-02-07T03:36:44.783Z,5.60
2023-02-07T03:37:46.931Z,5.60
2023-02-07T03:38:48.512Z,5.59
2023-02-07T03:39:49.996Z,5.59
2023-02-07T03:40:56.841Z,5.57
2023-02-07T03:42:00.600Z,5.57
2023-02-07T03:43:06.639Z,5.57
2023-02-07T03:44:08.729Z,5.58
2023-02-07T03:45:12.085Z,5.57
2023-02-07T03:46:13.608Z,5.54
2023-02-07T03:47:17.118Z,5.53
2023-02-07T03:48:18.691Z,5.52
2023-02-07T03:49:20.303Z,5.51
2023-02-07T03:50:21.936Z,5.52
2023-02-07T03:51:23.414Z,5.51
2023-02-07T03:52:24.920Z,5.51
2023-02-07T03:53:27.141Z,5.50
2023-02-07T03:54:28.854Z,5.48
2023-02-07T03:55:31.004Z,5.47
2023-02-07T03:56:32.618Z,5.47
2023-02-07T03:57:34.381Z,5.46
2023-02-07T03:58:35.825Z,5.44
2023-02-07T03:59:37.358Z,5.44
2023-02-07T04:00:38.959Z,5.43
2023-02-07T04:01:43.518Z,5.42
2023-02-07T04:02:45.042Z,5.41
2023-02-07T04:03:46.566Z,5.41
2023-02-07T04:04:48.199Z,5.38
2023-02-07T04:05:49.701Z,5.35
2023-02-07T04:06:51.369Z,5.35
2023-02-07T04:07:52.941Z,5.30
2023-02-07T04:08:54.516Z,5.29
2023-02-07T04:09:56.080Z,5.29
2023-02-07T04:10:58.569Z,5.27
2023-02-07T04:12:00.141Z,5.24
2023-02-07T04:13:01.678Z,5.19
2023-02-07T04:14:03.272Z,5.20
2023-02-07T04:15:05.135Z,5.19
2023-02-07T04:16:06.958Z,5.19
2023-02-07T04:17:08.505Z,5.19
2023-02-07T04:18:10.090Z,5.17
2023-02-07T04:19:11.594Z,5.17
2023-02-07T04:20:13.268Z,5.16
2023-02-07T04:21:14.947Z,5.16
2023-02-07T04:22:16.454Z,5.16
2023-02-07T04:23:17.932Z,5.14
2023-02-07T04:24:19.696Z,5.13
2023-02-07T04:25:21.288Z,5.11
2023-02-07T04:26:24.500Z,5.11
2023-02-07T04:27:26.059Z,5.08
2023-02-07T04:28:27.847Z,5.07
2023-02-07T04:29:29.317Z,5.04
2023-02-07T04:30:32.075Z,5.05
2023-02-07T04:31:33.650Z,5.07
2023-02-07T04:32:35.146Z,4.94
2023-02-07T04:33:36.678Z,5.05
2023-02-07T04:34:38.330Z,5.04
2023-02-07T04:35:39.914Z,5.04
2023-02-07T04:36:41.431Z,5.05
2023-02-07T04:37:43.016Z,5.04
2023-02-07T04:38:44.799Z,5.02
2023-02-07T04:39:47.028Z,5.04
2023-02-07T04:40:48.559Z,5.01
2023-02-07T04:41:50.063Z,5.00
2023-02-07T04:42:51.607Z,4.99
2023-02-07T04:43:53.141Z,4.98
2023-02-07T04:44:54.730Z,4.98
2023-02-07T04:45:56.245Z,4.98
2023-02-07T04:46:57.828Z,4.98
2023-02-07T04:47:59.300Z,4.97
2023-02-07T04:49:00.784Z,4.93
2023-02-07T04:50:02.319Z,4.88
2023-02-07T04:51:04.186Z,4.92
2023-02-07T04:52:05.737Z,4.91
2023-02-07T04:53:07.232Z,4.87
2023-02-07T04:54:08.733Z,4.87
2023-02-07T04:55:10.246Z,4.86
2023-02-07T04:56:11.728Z,4.84
2023-02-07T04:57:13.287Z,4.81
2023-02-07T04:58:14.759Z,4.78
2023-02-07T04:59:16.241Z,4.79
2023-02-07T05:00:17.972Z,4.77
2023-02-07T05:01:19.505Z,4.77
2023-02-07T05:02:21.007Z,4.77
2023-02-07T05:03:22.527Z,4.77
2023-02-07T05:04:24.093Z,4.78
2023-02-07T05:05:25.670Z,4.79
2023-02-07T05:06:27.211Z,4.78
2023-02-07T05:07:28.701Z,4.75
2023-02-07T05:08:30.255Z,4.76
2023-02-07T05:09:31.826Z,4.75
2023-02-07T05:10:33.292Z,4.74
2023-02-07T05:11:34.803Z,4.69
2023-02-07T05:12:36.340Z,4.69
2023-02-07T05:13:37.891Z,4.67
2023-02-07T05:14:39.386Z,4.68
2023-02-07T05:15:41.017Z,4.68
2023-02-07T05:16:42.576Z,4.65
2023-02-07T05:17:44.114Z,4.64
2023-02-07T05:18:45.632Z,4.63
2023-02-07T05:19:47.089Z,4.62
2023-02-07T05:20:50.267Z,4.63
2023-02-07T05:21:52.942Z,4.62
2023-02-07T05:22:54.400Z,4.64
2023-02-07T05:23:55.925Z,4.62
2023-02-07T05:24:57.407Z,4.63
2023-02-07T05:25:58.878Z,4.62
2023-02-07T05:27:00.418Z,4.60
2023-02-07T05:28:02.528Z,4.59
2023-02-07T05:29:04.071Z,4.58
2023-02-07T05:30:05.755Z,4.57
2023-02-07T05:31:07.418Z,4.56
2023-02-07T05:32:29.887Z,4.56
2023-02-07T05:33:31.341Z,4.52
2023-02-07T05:34:32.829Z,4.50
2023-02-07T05:35:41.382Z,4.52
2023-02-07T05:36:42.941Z,4.49
2023-02-07T05:37:44.413Z,4.49
2023-02-07T05:38:45.920Z,4.49
2023-02-07T05:39:47.400Z,4.49
2023-02-07T05:40:48.872Z,4.49
2023-02-07T05:41:50.337Z,4.46
2023-02-07T05:42:51.849Z,4.46
2023-02-07T05:43:53.343Z,4.44
2023-02-07T05:44:54.841Z,4.40
2023-02-07T05:45:56.342Z,4.42
2023-02-07T05:46:57.987Z,4.42
2023-02-07T05:47:59.511Z,4.40
2023-02-07T05:49:01.032Z,4.42
2023-02-07T05:50:02.538Z,4.40
2023-02-07T05:51:04.066Z,4.41
2023-02-07T05:52:05.537Z,4.40
2023-02-07T05:53:07.468Z,4.39
2023-02-07T05:54:09.010Z,4.40
2023-02-07T05:55:10.634Z,4.39
2023-02-07T05:56:12.120Z,4.40
2023-02-07T05:57:13.576Z,4.39
2023-02-07T05:58:15.071Z,4.40
2023-02-07T05:59:16.565Z,4.39
2023-02-07T06:00:18.280Z,4.39
2023-02-07T06:01:19.784Z,4.36
2023-02-07T06:02:21.317Z,4.37
2023-02-07T06:03:22.870Z,4.35
2023-02-07T06:04:24.409Z,4.34
2023-02-07T06:05:31.445Z,4.32
2023-02-07T06:06:32.931Z,4.32
2023-02-07T06:07:34.384Z,4.31
2023-02-07T06:08:35.905Z,4.28
2023-02-07T06:09:37.374Z,4.27
2023-02-07T06:10:39.977Z,4.14
2023-02-07T06:11:41.424Z,4.24
2023-02-07T06:12:42.954Z,4.25
2023-02-07T06:13:44.450Z,4.24
2023-02-07T06:14:45.937Z,4.24
2023-02-07T06:15:47.628Z,4.23
2023-02-07T06:16:49.116Z,4.20
2023-02-07T06:17:50.614Z,4.20
2023-02-07T06:18:52.205Z,4.19
2023-02-07T06:19:53.779Z,4.19
2023-02-07T06:20:55.352Z,4.19
2023-02-07T06:21:56.826Z,4.17
2023-02-07T06:22:58.329Z,4.18
2023-02-07T06:23:59.876Z,4.17
2023-02-07T06:25:01.372Z,4.18
2023-02-07T06:26:02.861Z,4.18
2023-02-07T06:27:04.375Z,4.18
2023-02-07T06:28:35.638Z,4.13
2023-02-07T06:29:37.141Z,4.14
2023-02-07T06:30:39.236Z,4.12
2023-02-07T06:31:40.734Z,4.13
2023-02-07T06:32:42.253Z,4.13
2023-02-07T06:33:43.810Z,4.12
2023-02-07T06:34:45.314Z,4.13
2023-02-07T06:35:47.446Z,4.12
2023-02-07T06:36:48.945Z,4.11
2023-02-07T06:37:50.394Z,4.10
2023-02-07T06:38:55.473Z,4.09
2023-02-07T06:39:56.997Z,4.09
2023-02-07T06:40:58.526Z,4.08
2023-02-07T06:42:00.007Z,4.08
2023-02-07T06:43:01.600Z,4.08
2023-02-07T06:44:03.194Z,4.08
2023-02-07T06:45:04.861Z,4.07
2023-02-07T06:46:06.744Z,4.08
2023-02-07T06:47:08.300Z,4.09
2023-02-07T06:48:09.760Z,4.09
2023-02-07T06:49:11.554Z,4.07
2023-02-07T06:50:13.085Z,4.07
2023-02-07T06:51:14.567Z,4.05
2023-02-07T06:52:16.182Z,4.02
2023-02-07T06:53:17.765Z,4.02
2023-02-07T06:54:19.303Z,4.03
2023-02-07T06:55:20.797Z,4.02
2023-02-07T06:56:22.399Z,4.01
2023-02-07T06:57:23.865Z,3.98
2023-02-07T06:58:25.368Z,3.98
2023-02-07T06:59:26.858Z,4.00
2023-02-07T07:00:28.382Z,4.02
2023-02-07T07:01:29.975Z,4.02
2023-02-07T07:02:31.575Z,4.00
2023-02-07T07:03:33.120Z,3.97
2023-02-07T07:04:34.601Z,3.99
2023-02-07T07:05:36.266Z,4.00
2023-02-07T07:06:37.976Z,4.00
2023-02-07T07:07:39.429Z,3.96
2023-02-07T07:08:40.913Z,3.96
2023-02-07T07:09:42.409Z,3.97
2023-02-07T07:10:43.882Z,3.97
2023-02-07T07:11:45.377Z,3.99
2023-02-07T07:12:47.243Z,3.98
2023-02-07T07:13:48.722Z,3.97
2023-02-07T07:14:50.224Z,3.97
2023-02-07T07:15:51.943Z,3.98
2023-02-07T07:16:55.282Z,3.99
2023-02-07T07:17:57.996Z,4.00
2023-02-07T07:18:59.468Z,4.02
2023-02-07T07:20:00.956Z,4.04
2023-02-07T07:21:02.465Z,4.05
2023-02-07T07:22:03.902Z,4.04
2023-02-07T07:23:05.455Z,3.99
2023-02-07T07:24:06.968Z,4.00
2023-02-07T07:25:08.666Z,3.99
2023-02-07T07:26:10.230Z,3.97
2023-02-07T07:27:11.770Z,3.93
2023-02-07T07:28:13.295Z,3.95
2023-02-07T07:29:14.881Z,3.97
2023-02-07T07:30:16.397Z,3.94
2023-02-07T07:31:18.080Z,3.94
2023-02-07T07:32:33.014Z,3.96
2023-02-07T07:33:35.542Z,3.97
2023-02-07T07:34:36.999Z,3.99
2023-02-07T07:35:38.796Z,4.01
2023-02-07T07:36:40.547Z,3.81
2023-02-07T07:37:42.063Z,4.05
2023-02-07T07:38:45.996Z,4.07
2023-02-07T07:39:49.319Z,4.08
2023-02-07T07:40:50.813Z,4.09
2023-02-07T07:41:52.299Z,4.10
2023-02-07T07:43:10.713Z,4.15
2023-02-07T07:44:20.618Z,4.23
2023-02-07T07:45:22.136Z,4.27
2023-02-07T07:46:23.648Z,4.28
2023-02-07T07:47:27.303Z,4.32
2023-02-07T07:48:29.512Z,4.37
2023-02-07T07:49:31.232Z,4.33
2023-02-07T07:50:32.710Z,4.38
2023-02-07T07:51:34.252Z,4.48
2023-02-07T07:52:35.867Z,4.61
2023-02-07T07:53:37.368Z,4.80
2023-02-07T07:54:38.939Z,4.96
2023-02-07T07:55:40.442Z,5.14
2023-02-07T07:56:41.976Z,5.32
2023-02-07T07:57:43.461Z,5.41
2023-02-07T07:58:44.973Z,5.56
2023-02-07T07:59:46.466Z,5.73
2023-02-07T08:00:48.272Z,5.91
2023-02-07T08:01:49.798Z,6.10
2023-02-07T08:02:51.568Z,6.29
2023-02-07T08:03:53.082Z,6.47
2023-02-07T08:04:54.622Z,6.67
2023-02-07T08:05:56.098Z,6.84
2023-02-07T08:06:57.764Z,6.99
2023-02-07T08:07:59.380Z,7.18
2023-02-07T08:09:00.846Z,7.34
2023-02-07T08:10:02.308Z,7.46
2023-02-07T08:11:04.241Z,7.59
2023-02-07T08:12:05.910Z,7.67
2023-02-07T08:13:07.581Z,7.78
2023-02-07T08:14:10.170Z,7.91
2023-02-07T08:15:13.871Z,8.04
2023-02-07T08:16:15.385Z,8.13
2023-02-07T08:17:17.021Z,8.15
2023-02-07T08:18:18.728Z,8.35
2023-02-07T08:19:20.208Z,8.42
2023-02-07T08:20:21.745Z,8.58
2023-02-07T08:21:23.314Z,8.73
2023-02-07T08:22:24.788Z,8.88
2023-02-07T08:23:26.254Z,9.00
2023-02-07T08:24:28.353Z,9.13
2023-02-07T08:25:29.928Z,9.29
2023-02-07T08:26:31.368Z,9.42
2023-02-07T08:27:32.918Z,9.57
2023-02-07T08:28:34.410Z,9.70
2023-02-07T08:29:35.871Z,9.78
2023-02-07T08:30:38.062Z,9.82
2023-02-07T08:31:39.764Z,9.89
2023-02-07T08:32:41.893Z,10.02
2023-02-07T08:33:43.781Z,10.14
2023-02-07T08:34:45.443Z,10.16
2023-02-07T08:35:46.937Z,10.24
2023-02-07T08:36:48.517Z,10.32
2023-02-07T08:37:51.236Z,10.51
2023-02-07T08:38:52.710Z,10.59
2023-02-07T08:39:54.351Z,10.73
2023-02-07T08:40:55.958Z,10.86
2023-02-07T08:41:57.477Z,10.95
2023-02-07T08:42:59.246Z,11.02
2023-02-07T08:44:00.733Z,11.13
2023-02-07T08:45:02.458Z,11.30
2023-02-07T08:46:04.105Z,11.41
2023-02-07T08:47:05.989Z,11.56
2023-02-07T08:48:07.513Z,11.64
2023-02-07T08:49:08.975Z,11.77
2023-02-07T08:50:10.881Z,11.92
2023-02-07T08:51:12.368Z,12.03
2023-02-07T08:52:13.930Z,12.12
2023-02-07T08:53:15.438Z,12.14
2023-02-07T08:54:16.925Z,12.08
2023-02-07T08:55:18.525Z,12.18
2023-02-07T08:56:20.321Z,12.32
2023-02-07T08:57:25.593Z,12.45
2023-02-07T08:58:27.858Z,12.62
2023-02-07T08:59:29.346Z,12.72
2023-02-07T09:00:30.853Z,12.82
2023-02-07T09:01:32.532Z,12.92
2023-02-07T09:02:34.210Z,13.07
2023-02-07T09:03:35.845Z,13.22
2023-02-07T09:04:37.466Z,13.31
2023-02-07T09:05:39.017Z,13.33
2023-02-07T09:06:40.477Z,13.46
2023-02-07T09:07:42.048Z,13.49
2023-02-07T09:08:43.558Z,13.55
2023-02-07T09:09:45.182Z,13.64
2023-02-07T09:10:47.782Z,13.75
2023-02-07T09:11:49.282Z,13.80
2023-02-07T09:12:50.754Z,13.87
2023-02-07T09:13:52.261Z,14.00
2023-02-07T09:14:53.741Z,14.10
2023-02-07T09:15:55.828Z,14.15
2023-02-07T09:16:57.387Z,14.13
2023-02-07T09:17:58.943Z,13.97
2023-02-07T09:19:00.470Z,13.94
2023-02-07T09:20:01.987Z,13.94
2023-02-07T09:21:03.834Z,13.98
2023-02-07T09:22:05.402Z,13.96
2023-02-07T09:23:19.363Z,13.95
2023-02-07T09:24:21.100Z,13.92
2023-02-07T09:25:22.636Z,13.78
2023-02-07T09:26:26.602Z,13.78
2023-02-07T09:27:28.099Z,13.81
2023-02-07T09:28:29.602Z,13.81
2023-02-07T09:29:31.138Z,13.79
2023-02-07T09:30:32.623Z,13.89
2023-02-07T09:31:34.298Z,13.92
2023-02-07T09:32:35.887Z,14.03
2023-02-07T09:33:37.562Z,14.14
2023-02-07T09:34:39.025Z,14.21
2023-02-07T09:35:41.317Z,14.32
2023-02-07T09:36:43.234Z,14.54
2023-02-07T09:37:49.847Z,14.62
2023-02-07T09:38:51.787Z,14.64
2023-02-07T09:39:53.330Z,14.69
2023-02-07T09:40:54.824Z,14.69
2023-02-07T09:42:05.628Z,14.79
2023-02-07T09:43:12.588Z,14.79
2023-02-07T09:44:29.376Z,14.81
2023-02-07T09:45:31.496Z,14.98
2023-02-07T09:46:32.990Z,15.17
2023-02-07T09:47:34.561Z,15.39
2023-02-07T09:48:42.037Z,15.50
2023-02-07T09:49:44.540Z,15.72
2023-02-07T09:50:48.098Z,15.75
2023-02-07T09:51:49.587Z,15.71
2023-02-07T09:52:54.749Z,15.78
2023-02-07T09:53:58.462Z,15.78
2023-02-07T09:55:00.872Z,15.80
2023-02-07T09:56:02.423Z,15.85
2023-02-07T09:57:05.205Z,15.86
2023-02-07T09:58:08.481Z,15.88
2023-02-07T09:59:26.614Z,15.99
2023-02-07T10:00:29.278Z,16.18
2023-02-07T10:01:49.002Z,16.35
2023-02-07T10:02:56.245Z,16.53
2023-02-07T10:04:10.034Z,16.55
2023-02-07T10:05:18.674Z,16.66
2023-02-07T10:06:30.051Z,16.64
2023-02-07T10:07:32.305Z,16.62
2023-02-07T10:08:40.881Z,16.51
2023-02-07T10:09:43.869Z,16.41
2023-02-07T10:10:47.951Z,16.37
2023-02-07T10:11:52.496Z,16.47
2023-02-07T10:13:03.240Z,16.57
2023-02-07T10:14:05.266Z,16.66
2023-02-07T10:15:18.446Z,16.72
2023-02-07T10:16:40.181Z,16.85
2023-02-07T10:17:50.827Z,17.00
2023-02-07T10:18:52.365Z,17.00
2023-02-07T10:19:57.047Z,17.10
2023-02-07T10:21:04.834Z,17.21
2023-02-07T10:22:15.408Z,17.36
2023-02-07T10:23:25.907Z,17.55
2023-02-07T10:24:27.421Z,17.60
2023-02-07T10:25:33.942Z,17.59
2023-02-07T10:26:41.978Z,17.62
2023-02-07T10:28:02.950Z,17.62
2023-02-07T10:29:10.071Z,17.70
2023-02-07T10:30:14.188Z,17.77
2023-02-07T10:31:19.235Z,17.74
2023-02-07T10:32:22.013Z,17.72
2023-02-07T10:33:28.939Z,17.85
2023-02-07T10:34:32.540Z,18.00
2023-02-07T10:35:35.126Z,17.94
2023-02-07T10:36:36.626Z,17.69
2023-02-07T10:37:38.302Z,17.71
2023-02-07T10:38:39.763Z,17.77
2023-02-07T10:39:42.955Z,17.87
2023-02-07T10:40:44.806Z,17.93
2023-02-07T10:41:46.293Z,17.90
2023-02-07T10:42:48.650Z,17.90
2023-02-07T10:43:50.608Z,17.85
2023-02-07T10:44:52.209Z,17.85
2023-02-07T10:46:00.924Z,18.04
2023-02-07T10:47:07.688Z,18.22
2023-02-07T10:48:15.277Z,18.46
2023-02-07T10:49:35.308Z,18.60
2023-02-07T10:50:36.813Z,18.64
2023-02-07T10:51:45.693Z,18.65
2023-02-07T10:52:50.957Z,18.66
2023-02-07T10:54:02.799Z,18.73
2023-02-07T10:55:06.411Z,18.87
2023-02-07T10:56:13.971Z,18.87
2023-02-07T10:57:16.067Z,18.88
2023-02-07T10:58:24.965Z,18.98
2023-02-07T10:59:29.992Z,19.14
2023-02-07T11:00:31.876Z,19.10
2023-02-07T11:01:33.613Z,18.97
2023-02-07T11:02:37.466Z,19.04
2023-02-07T11:03:39.018Z,19.06
2023-02-07T11:04:42.573Z,18.94
2023-02-07T11:05:59.632Z,18.86
2023-02-07T11:07:01.800Z,18.93
2023-02-07T11:08:04.662Z,18.91
2023-02-07T11:09:22.284Z,18.92
2023-02-07T11:10:24.309Z,18.94
2023-02-07T11:11:32.800Z,18.99
2023-02-07T11:12:34.389Z,19.04
2023-02-07T11:13:36.926Z,19.16
2023-02-07T11:14:42.748Z,19.22
2023-02-07T11:15:56.839Z,19.19
2023-02-07T11:16:58.919Z,19.01
2023-02-07T11:18:00.477Z,18.99
2023-02-07T11:19:05.661Z,18.89
2023-02-07T11:20:07.355Z,18.84
2023-02-07T11:21:22.249Z,18.95
2023-02-07T11:22:24.209Z,19.03
2023-02-07T11:23:25.828Z,18.93
2023-02-07T11:24:31.564Z,18.99
2023-02-07T11:25:35.752Z,18.94
2023-02-07T11:26:39.716Z,18.93
2023-02-07T11:27:41.201Z,18.88
2023-02-07T11:28:42.695Z,18.72
2023-02-07T11:29:46.822Z,18.62
2023-02-07T11:30:51.999Z,18.56
2023-02-07T11:31:54.244Z,18.36
2023-02-07T11:32:57.357Z,18.25
2023-02-07T11:34:31.053Z,17.94
2023-02-07T11:35:32.557Z,17.57
2023-02-07T11:36:34.152Z,17.39
2023-02-07T11:37:36.478Z,17.34
2023-02-07T11:38:56.439Z,17.42
2023-02-07T11:40:16.170Z,17.27
2023-02-07T11:41:21.583Z,17.00
2023-02-07T11:42:26.853Z,16.95
2023-02-07T11:43:28.422Z,17.00
2023-02-07T11:44:30.867Z,17.04
2023-02-07T11:45:34.303Z,17.04
2023-02-07T11:46:36.797Z,17.01
2023-02-07T11:47:38.376Z,16.79
2023-02-07T11:48:40.244Z,16.66
2023-02-07T11:49:57.764Z,16.47
2023-02-07T11:50:59.622Z,16.32
2023-02-07T11:52:01.575Z,16.21
2023-02-07T11:53:22.572Z,16.17
2023-02-07T11:54:24.099Z,16.14
2023-02-07T11:55:33.984Z,16.12
2023-02-07T11:56:42.211Z,16.01
2023-02-07T11:57:44.375Z,15.99
2023-02-07T11:58:49.145Z,15.91
2023-02-07T12:00:06.796Z,15.91
2023-02-07T12:01:18.137Z,15.96
2023-02-07T12:02:25.638Z,15.94
2023-02-07T12:03:27.828Z,15.81
2023-02-07T12:04:32.601Z,15.81
2023-02-07T12:05:35.388Z,15.70
2023-02-07T12:06:41.453Z,15.73
2023-02-07T12:07:43.948Z,15.70
2023-02-07T12:08:45.425Z,15.64
2023-02-07T12:09:48.138Z,15.57
2023-02-07T12:10:51.024Z,15.56
2023-02-07T12:11:52.497Z,15.60
2023-02-07T12:12:53.996Z,15.66
2023-02-07T12:13:55.965Z,15.63
2023-02-07T12:15:04.025Z,15.69
2023-02-07T12:16:08.447Z,15.55
2023-02-07T12:17:13.334Z,15.46
2023-02-07T12:18:33.553Z,15.46
2023-02-07T12:19:35.261Z,15.34
2023-02-07T12:21:09.000Z,15.29
2023-02-07T12:22:14.917Z,15.31
2023-02-07T12:23:41.193Z,15.20
2023-02-07T12:24:43.835Z,15.27
2023-02-07T12:25:49.246Z,15.32
2023-02-07T12:26:50.763Z,15.33
2023-02-07T12:27:52.696Z,15.38
2023-02-07T12:29:15.795Z,15.41
2023-02-07T12:30:22.988Z,15.43
2023-02-07T12:31:27.531Z,15.41
2023-02-07T12:33:05.742Z,15.34
2023-02-07T12:34:11.925Z,15.34
2023-02-07T12:35:25.185Z,15.30
2023-02-07T12:36:27.782Z,15.31
2023-02-07T12:37:37.982Z,15.28
2023-02-07T12:38:44.422Z,15.28
2023-02-07T12:39:48.483Z,15.30
2023-02-07T12:40:52.002Z,15.25
2023-02-07T12:41:59.114Z,15.17
2023-02-07T12:43:18.882Z,15.13
2023-02-07T12:44:24.054Z,15.16
2023-02-07T12:45:45.017Z,15.10
2023-02-07T12:46:47.084Z,15.09
2023-02-07T12:47:54.538Z,14.94
2023-02-07T12:49:14.812Z,15.04
2023-02-07T12:50:34.992Z,15.08
2023-02-07T12:51:39.377Z,15.04
2023-02-07T12:52:59.209Z,14.98
2023-02-07T12:54:18.723Z,14.94
2023-02-07T12:55:38.972Z,14.95
2023-02-07T12:56:59.491Z,14.92
2023-02-07T12:58:12.934Z,14.91
2023-02-07T12:59:14.701Z,14.85
2023-02-07T13:00:21.021Z,14.78
2023-02-07T13:01:24.683Z,14.77
2023-02-07T13:02:55.434Z,14.83
2023-02-07T13:04:29.266Z,14.85
2023-02-07T13:05:37.133Z,14.80
2023-02-07T13:06:56.922Z,14.78
2023-02-07T13:08:05.515Z,14.69
2023-02-07T13:09:13.236Z,14.68
2023-02-07T13:10:19.870Z,14.71
2023-02-07T13:11:47.267Z,14.71
2023-02-07T13:12:58.707Z,14.70
2023-02-07T13:14:09.041Z,14.67
2023-02-07T13:15:16.015Z,14.59
2023-02-07T13:16:18.913Z,14.56
2023-02-07T13:17:23.284Z,14.62
2023-02-07T13:18:40.996Z,14.64
2023-02-07T13:19:47.723Z,14.57
2023-02-07T13:21:04.323Z,14.53
2023-02-07T13:22:07.002Z,14.52
2023-02-07T13:23:26.830Z,14.50
2023-02-07T13:24:28.701Z,14.52
2023-02-07T13:25:31.078Z,14.49
2023-02-07T13:26:33.670Z,14.49
2023-02-07T13:27:35.163Z,14.51
2023-02-07T13:28:39.694Z,14.53
2023-02-07T13:29:41.196Z,14.51
2023-02-07T13:30:42.766Z,14.54
2023-02-07T13:31:49.513Z,14.58
2023-02-07T13:32:51.036Z,14.60
2023-02-07T13:33:52.583Z,14.57
2023-02-07T13:35:07.671Z,14.60
2023-02-07T13:36:19.709Z,14.59
2023-02-07T13:37:22.072Z,14.63
2023-02-07T13:38:23.760Z,14.63
2023-02-07T13:39:33.942Z,14.64
2023-02-07T13:40:38.522Z,14.61
2023-02-07T13:41:49.788Z,14.60
2023-02-07T13:43:08.105Z,14.59
2023-02-07T13:44:26.935Z,14.57
2023-02-07T13:45:33.294Z,14.62
2023-02-07T13:47:13.258Z,14.61
2023-02-07T13:48:26.850Z,14.59
2023-02-07T13:49:41.270Z,14.58
2023-02-07T13:50:42.760Z,14.60
2023-02-07T13:51:51.900Z,14.61
2023-02-07T13:52:59.852Z,14.61
2023-02-07T13:54:10.146Z,14.62
2023-02-07T13:55:14.593Z,14.58
2023-02-07T13:56:34.920Z,14.51
2023-02-07T13:57:55.099Z,14.45
2023-02-07T13:59:15.483Z,14.45
2023-02-07T14:00:17.755Z,14.43
2023-02-07T14:01:22.076Z,14.45
2023-02-07T14:02:23.746Z,14.44
2023-02-07T14:03:29.140Z,14.46
2023-02-07T14:04:45.023Z,14.45
2023-02-07T14:05:46.523Z,14.24